sensor_id;sensor_type;location;lat;lon;timestamp;pressure;altitude;pressure_sealevel;temperature;humidity
929;BME280;451;47.988;7.842;2023-04-25T00:07:42;97965.88;;;11.00;73.39
929;BME280;451;47.988;7.842;2023-04-25T00:16:45;97903.31;;;10.74;74.50
929;BME280;451;47.988;7.842;2023-04-25T00:25:50;97965.78;;;10.72;79.21
929;BME280;451;47.988;7.842;2023-04-25T00:34:53;97962.31;;;10.72;80.35
929;BME280;451;47.988;7.842;2023-04-25T00:43:59;97924.03;;;10.48;82.09
929;BME280;451;47.988;7.842;2023-04-25T00:53:03;97858.81;;;10.37;82.34
929;BME280;451;47.988;7.842;2023-04-25T01:02:08;97925.44;;;10.65;83.22
929;BME280;451;47.988;7.842;2023-04-25T01:11:14;97890.84;;;10.03;85.71
929;BME280;451;47.988;7.842;2023-04-25T01:20:21;97904.06;;;10.09;89.16
929;BME280;451;47.988;7.842;2023-04-25T01:29:27;97888.84;;;9.90;89.12
929;BME280;451;47.988;7.842;2023-04-25T01:38:33;97904.63;;;10.20;89.28
929;BME280;451;47.988;7.842;2023-04-25T01:47:39;97908.72;;;10.22;88.98
929;BME280;451;47.988;7.842;2023-04-25T01:56:49;97817.22;;;9.96;86.05
929;BME280;451;47.988;7.842;2023-04-25T02:05:55;97845.75;;;10.29;84.06
929;BME280;451;47.988;7.842;2023-04-25T02:15:00;97887.38;;;10.61;82.83
929;BME280;451;47.988;7.842;2023-04-25T02:24:14;97898.16;;;10.66;82.51
929;BME280;451;47.988;7.842;2023-04-25T02:33:17;97869.91;;;10.39;82.63
929;BME280;451;47.988;7.842;2023-04-25T02:42:21;97884.16;;;10.80;81.64
929;BME280;451;47.988;7.842;2023-04-25T02:51:25;97878.22;;;10.57;82.54
929;BME280;451;47.988;7.842;2023-04-25T03:00:29;97837.91;;;10.50;80.60
929;BME280;451;47.988;7.842;2023-04-25T03:09:32;97790.97;;;10.11;81.11
929;BME280;451;47.988;7.842;2023-04-25T03:18:38;97853.72;;;10.71;79.33
929;BME280;451;47.988;7.842;2023-04-25T03:27:41;97841.13;;;10.88;77.84
929;BME280;451;47.988;7.842;2023-04-25T03:36:45;97830.69;;;10.95;74.00
929;BME280;451;47.988;7.842;2023-04-25T03:45:50;97817.28;;;11.11;73.99
929;BME280;451;47.988;7.842;2023-04-25T03:54:58;97810.75;;;10.43;76.70
929;BME280;451;47.988;7.842;2023-04-25T04:04:01;97805.19;;;10.17;78.77
929;BME280;451;47.988;7.842;2023-04-25T04:13:06;97788.44;;;9.88;80.42
929;BME280;451;47.988;7.842;2023-04-25T04:22:09;97799.16;;;9.87;83.57
929;BME280;451;47.988;7.842;2023-04-25T04:31:15;97798.38;;;10.07;82.85
929;BME280;451;47.988;7.842;2023-04-25T04:40:22;97804.91;;;10.26;80.38
929;BME280;451;47.988;7.842;2023-04-25T04:49:38;97814.78;;;10.09;83.32
929;BME280;451;47.988;7.842;2023-04-25T04:58:41;97817.47;;;10.31;81.82
929;BME280;451;47.988;7.842;2023-04-25T05:07:57;97815.66;;;10.31;85.26
929;BME280;451;47.988;7.842;2023-04-25T05:17:17;97833.72;;;10.91;89.83
929;BME280;451;47.988;7.842;2023-04-25T05:26:41;97824.00;;;9.47;100.00
929;BME280;451;47.988;7.842;2023-04-25T05:35:58;97864.84;;;9.26;100.00
929;BME280;451;47.988;7.842;2023-04-25T05:45:05;97871.66;;;8.36;100.00
929;BME280;451;47.988;7.842;2023-04-25T05:54:16;97894.56;;;8.34;100.00
929;BME280;451;47.988;7.842;2023-04-25T06:03:21;97900.84;;;8.09;100.00
929;BME280;451;47.988;7.842;2023-04-25T06:12:25;97795.41;;;7.37;100.00
929;BME280;451;47.988;7.842;2023-04-25T06:21:30;97915.59;;;7.94;100.00
929;BME280;451;47.988;7.842;2023-04-25T06:30:34;97937.63;;;8.32;100.00
929;BME280;451;47.988;7.842;2023-04-25T06:39:44;97928.97;;;8.15;100.00
929;BME280;451;47.988;7.842;2023-04-25T06:48:47;97940.13;;;8.01;100.00
929;BME280;451;47.988;7.842;2023-04-25T06:57:53;97952.59;;;8.54;100.00
929;BME280;451;47.988;7.842;2023-04-25T07:07:22;97978.47;;;8.88;100.00
929;BME280;451;47.988;7.842;2023-04-25T07:16:32;97994.94;;;8.74;100.00
929;BME280;451;47.988;7.842;2023-04-25T07:25:36;97897.25;;;8.18;100.00
929;BME280;451;47.988;7.842;2023-04-25T07:34:41;98014.59;;;8.70;100.00
929;BME280;451;47.988;7.842;2023-04-25T07:43:46;98015.47;;;8.54;100.00
929;BME280;451;47.988;7.842;2023-04-25T07:52:50;98038.47;;;8.83;100.00
929;BME280;451;47.988;7.842;2023-04-25T08:02:01;98052.81;;;9.03;100.00
929;BME280;451;47.988;7.842;2023-04-25T08:11:06;98052.97;;;9.32;100.00
929;BME280;451;47.988;7.842;2023-04-25T08:20:10;98078.22;;;9.64;100.00
929;BME280;451;47.988;7.842;2023-04-25T08:29:15;98086.03;;;9.95;100.00
929;BME280;451;47.988;7.842;2023-04-25T08:38:19;98102.78;;;9.94;100.00
929;BME280;451;47.988;7.842;2023-04-25T08:47:26;98100.59;;;9.52;100.00
929;BME280;451;47.988;7.842;2023-04-25T08:56:32;98130.44;;;9.82;100.00
929;BME280;451;47.988;7.842;2023-04-25T09:05:39;98136.59;;;10.20;100.00
929;BME280;451;47.988;7.842;2023-04-25T09:15:01;98128.56;;;10.59;100.00
929;BME280;451;47.988;7.842;2023-04-25T09:24:31;98137.38;;;10.66;100.00
929;BME280;451;47.988;7.842;2023-04-25T09:33:34;98155.47;;;10.99;100.00
929;BME280;451;47.988;7.842;2023-04-25T09:42:41;98157.75;;;11.82;98.75
929;BME280;451;47.988;7.842;2023-04-25T09:51:53;98174.88;;;13.67;95.57
929;BME280;451;47.988;7.842;2023-04-25T10:01:00;98183.28;;;13.43;89.43
929;BME280;451;47.988;7.842;2023-04-25T10:10:15;98195.28;;;13.93;85.28
929;BME280;451;47.988;7.842;2023-04-25T10:19:21;98190.06;;;14.20;81.45
929;BME280;451;47.988;7.842;2023-04-25T10:28:25;98186.81;;;14.04;79.59
929;BME280;451;47.988;7.842;2023-04-25T10:37:29;98175.84;;;15.39;73.29
929;BME280;451;47.988;7.842;2023-04-25T10:46:33;98182.41;;;12.74;76.94
929;BME280;451;47.988;7.842;2023-04-25T10:55:50;98199.47;;;11.34;89.79
929;BME280;451;47.988;7.842;2023-04-25T11:04:54;98163.72;;;12.47;88.22
929;BME280;451;47.988;7.842;2023-04-25T11:13:59;98185.28;;;12.79;83.28
929;BME280;451;47.988;7.842;2023-04-25T11:23:02;98181.53;;;14.31;76.82
929;BME280;451;47.988;7.842;2023-04-25T11:32:06;98121.53;;;13.44;69.15
929;BME280;451;47.988;7.842;2023-04-25T11:41:09;98180.91;;;13.55;64.11
929;BME280;451;47.988;7.842;2023-04-25T11:50:14;98157.75;;;11.82;84.29
929;BME280;451;47.988;7.842;2023-04-25T11:59:23;98206.91;;;11.45;100.00
929;BME280;451;47.988;7.842;2023-04-25T12:08:28;98193.72;;;12.68;100.00
929;BME280;451;47.988;7.842;2023-04-25T12:17:31;98188.19;;;13.18;100.00
929;BME280;451;47.988;7.842;2023-04-25T12:26:50;98182.63;;;13.82;100.00
929;BME280;451;47.988;7.842;2023-04-25T12:35:53;98187.94;;;14.96;84.00
929;BME280;451;47.988;7.842;2023-04-25T12:44:58;98190.78;;;15.07;79.90
929;BME280;451;47.988;7.842;2023-04-25T12:54:03;98192.94;;;15.56;73.91
929;BME280;451;47.988;7.842;2023-04-25T13:03:12;98176.22;;;16.38;70.56
929;BME280;451;47.988;7.842;2023-04-25T13:12:15;98168.66;;;16.10;65.40
929;BME280;451;47.988;7.842;2023-04-25T13:21:19;98184.63;;;15.26;65.84
929;BME280;451;47.988;7.842;2023-04-25T13:30:22;98216.22;;;14.75;62.89
929;BME280;451;47.988;7.842;2023-04-25T13:39:26;98191.44;;;10.83;83.21
929;BME280;451;47.988;7.842;2023-04-25T13:48:29;98234.06;;;10.93;86.13
929;BME280;451;47.988;7.842;2023-04-25T13:57:34;98219.44;;;11.28;79.82
929;BME280;451;47.988;7.842;2023-04-25T14:06:37;98226.94;;;12.05;78.68
929;BME280;451;47.988;7.842;2023-04-25T14:15:41;98225.56;;;12.94;72.89
929;BME280;451;47.988;7.842;2023-04-25T14:24:44;98207.41;;;15.47;64.54
929;BME280;451;47.988;7.842;2023-04-25T14:33:48;98179.19;;;14.88;64.53
929;BME280;451;47.988;7.842;2023-04-25T14:42:51;98214.94;;;15.50;63.08
929;BME280;451;47.988;7.842;2023-04-25T14:51:56;98222.53;;;14.00;62.11
929;BME280;451;47.988;7.842;2023-04-25T15:00:59;98192.44;;;12.64;64.58
929;BME280;451;47.988;7.842;2023-04-25T15:10:05;98284.69;;;10.50;100.00
929;BME280;451;47.988;7.842;2023-04-25T15:19:12;98279.28;;;9.10;100.00
929;BME280;451;47.988;7.842;2023-04-25T15:28:16;98292.66;;;9.40;100.00
929;BME280;451;47.988;7.842;2023-04-25T15:37:20;98312.00;;;10.02;100.00
929;BME280;451;47.988;7.842;2023-04-25T15:46:24;98278.06;;;10.31;100.00
929;BME280;451;47.988;7.842;2023-04-25T15:55:28;98332.38;;;10.39;100.00
929;BME280;451;47.988;7.842;2023-04-25T16:04:34;98310.72;;;10.37;100.00
929;BME280;451;47.988;7.842;2023-04-25T16:13:37;98305.63;;;11.26;100.00
929;BME280;451;47.988;7.842;2023-04-25T16:22:42;98284.16;;;10.77;100.00
929;BME280;451;47.988;7.842;2023-04-25T16:31:45;98334.94;;;11.01;100.00
929;BME280;451;47.988;7.842;2023-04-25T16:40:50;98328.84;;;11.00;100.00
929;BME280;451;47.988;7.842;2023-04-25T16:49:53;98348.59;;;11.19;100.00
929;BME280;451;47.988;7.842;2023-04-25T16:58:57;98341.03;;;11.24;100.00
929;BME280;451;47.988;7.842;2023-04-25T17:08:00;98369.50;;;10.98;100.00
929;BME280;451;47.988;7.842;2023-04-25T17:17:05;98354.31;;;10.54;100.00
929;BME280;451;47.988;7.842;2023-04-25T17:26:08;98353.28;;;10.63;100.00
929;BME280;451;47.988;7.842;2023-04-25T17:35:13;98353.44;;;10.93;100.00
929;BME280;451;47.988;7.842;2023-04-25T17:44:16;98375.97;;;10.56;100.00
929;BME280;451;47.988;7.842;2023-04-25T17:53:20;98374.13;;;10.34;100.00
929;BME280;451;47.988;7.842;2023-04-25T18:02:23;98377.13;;;10.23;100.00
929;BME280;451;47.988;7.842;2023-04-25T18:11:29;98377.56;;;9.71;100.00
929;BME280;451;47.988;7.842;2023-04-25T18:20:32;98390.09;;;10.08;100.00
929;BME280;451;47.988;7.842;2023-04-25T18:29:37;98405.25;;;9.98;100.00
929;BME280;451;47.988;7.842;2023-04-25T18:38:40;98400.56;;;9.53;100.00
929;BME280;451;47.988;7.842;2023-04-25T18:47:44;98420.06;;;9.58;100.00
929;BME280;451;47.988;7.842;2023-04-25T18:56:48;98439.19;;;10.07;100.00
929;BME280;451;47.988;7.842;2023-04-25T19:05:52;98445.47;;;9.82;100.00
929;BME280;451;47.988;7.842;2023-04-25T19:14:55;98460.25;;;9.83;100.00
929;BME280;451;47.988;7.842;2023-04-25T19:24:01;98460.06;;;9.68;100.00
929;BME280;451;47.988;7.842;2023-04-25T19:33:05;98457.94;;;9.56;100.00
929;BME280;451;47.988;7.842;2023-04-25T19:42:09;98479.28;;;9.53;100.00
929;BME280;451;47.988;7.842;2023-04-25T19:51:13;98471.91;;;9.48;100.00
929;BME280;451;47.988;7.842;2023-04-25T20:00:18;98479.56;;;9.17;100.00
929;BME280;451;47.988;7.842;2023-04-25T20:09:23;98461.31;;;9.00;100.00
929;BME280;451;47.988;7.842;2023-04-25T20:18:28;98494.66;;;9.23;100.00
929;BME280;451;47.988;7.842;2023-04-25T20:27:31;98501.88;;;9.29;100.00
929;BME280;451;47.988;7.842;2023-04-25T20:36:35;98498.59;;;9.44;100.00
929;BME280;451;47.988;7.842;2023-04-25T20:45:38;98479.22;;;9.20;100.00
929;BME280;451;47.988;7.842;2023-04-25T20:54:43;98464.91;;;8.90;100.00
929;BME280;451;47.988;7.842;2023-04-25T21:03:47;98504.84;;;9.43;100.00
929;BME280;451;47.988;7.842;2023-04-25T21:12:52;98464.88;;;8.40;100.00
929;BME280;451;47.988;7.842;2023-04-25T21:21:57;98501.44;;;8.92;100.00
929;BME280;451;47.988;7.842;2023-04-25T21:31:02;98531.03;;;9.26;100.00
929;BME280;451;47.988;7.842;2023-04-25T21:40:06;98520.88;;;9.31;100.00
929;BME280;451;47.988;7.842;2023-04-25T21:49:12;98524.81;;;9.27;100.00
929;BME280;451;47.988;7.842;2023-04-25T21:58:15;98520.53;;;9.10;100.00
929;BME280;451;47.988;7.842;2023-04-25T22:07:20;98519.25;;;9.22;100.00
929;BME280;451;47.988;7.842;2023-04-25T22:16:22;98540.69;;;9.10;100.00
929;BME280;451;47.988;7.842;2023-04-25T22:25:27;98539.66;;;8.69;100.00
929;BME280;451;47.988;7.842;2023-04-25T22:34:30;98523.56;;;8.56;100.00
929;BME280;451;47.988;7.842;2023-04-25T22:43:36;98557.31;;;8.15;100.00
929;BME280;451;47.988;7.842;2023-04-25T22:52:40;98565.25;;;8.23;100.00
929;BME280;451;47.988;7.842;2023-04-25T23:01:45;98443.94;;;7.27;100.00
929;BME280;451;47.988;7.842;2023-04-25T23:10:48;98563.03;;;8.10;100.00
929;BME280;451;47.988;7.842;2023-04-25T23:19:53;98565.31;;;8.57;100.00
929;BME280;451;47.988;7.842;2023-04-25T23:28:56;98570.69;;;8.47;100.00
929;BME280;451;47.988;7.842;2023-04-25T23:38:00;98568.22;;;8.28;100.00
929;BME280;451;47.988;7.842;2023-04-25T23:47:03;98551.47;;;7.42;100.00
929;BME280;451;47.988;7.842;2023-04-25T23:56:07;98567.28;;;7.94;100.00
